Time;durP1;ratioP1;P1;durP2;ratioP2;P2;SDS_P1;SDS_P2;PMS_P1;PMS_P2;Temp;Humidity;BMP_temperature;BMP_pressure;BME280_temperature;BME280_humidity;BME280_pressure;Samples;Min_cycle;Max_cycle;Signal;HPM_P1;HPM_P2
2023/06/08 00:00:50;;;;;;;4.15;1.80;;;20.30;99.90;;;;;;5053411;28;20025;-42
2023/06/08 00:03:18;;;;;;;4.20;1.60;;;20.30;99.90;;;;;;5053456;28;20024;-45
2023/06/08 00:05:48;;;;;;;2.45;1.83;;;20.30;99.90;;;;;;5053544;28;20067;-45
2023/06/08 00:08:15;;;;;;;2.50;1.95;;;20.30;99.90;;;;;;5053556;28;20107;-45
2023/06/08 00:10:44;;;;;;;2.10;1.67;;;20.30;99.90;;;;;;5053312;28;20029;-43
2023/06/08 00:13:11;;;;;;;6.28;2.10;;;20.30;99.90;;;;;;5053394;28;20025;-43
2023/06/08 00:15:36;;;;;;;3.30;1.80;;;20.30;99.90;;;;;;5053400;28;20096;-42
2023/06/08 00:18:02;;;;;;;2.97;1.75;;;20.30;99.90;;;;;;5053222;28;20447;-43
2023/06/08 00:20:28;;;;;;;3.50;2.05;;;20.30;99.90;;;;;;5053076;28;20032;-43
2023/06/08 00:22:56;;;;;;;2.50;1.70;;;20.20;99.90;;;;;;5053333;28;20130;-41
2023/06/08 00:25:22;;;;;;;2.40;1.77;;;20.20;99.90;;;;;;5053223;28;20040;-42
2023/06/08 00:27:47;;;;;;;3.08;1.70;;;20.20;99.90;;;;;;5053178;28;20033;-43
2023/06/08 00:30:16;;;;;;;2.72;1.60;;;20.20;99.90;;;;;;5052942;28;20031;-44
2023/06/08 00:32:41;;;;;;;5.00;1.90;;;20.20;99.90;;;;;;5052954;28;20040;-43
2023/06/08 00:35:08;;;;;;;3.17;1.80;;;20.20;99.90;;;;;;5052917;28;20025;-43
2023/06/08 00:37:35;;;;;;;2.70;1.73;;;20.20;99.90;;;;;;5052920;28;20112;-44
2023/06/08 00:40:02;;;;;;;2.35;1.73;;;20.20;99.90;;;;;;5052895;28;20021;-44
2023/06/08 00:42:27;;;;;;;4.18;1.90;;;20.20;99.90;;;;;;5052926;28;20017;-44
2023/06/08 00:44:53;;;;;;;2.30;1.70;;;20.20;99.90;;;;;;5052794;28;20434;-44
2023/06/08 00:47:18;;;;;;;2.13;1.55;;;20.20;99.90;;;;;;5052756;28;20032;-43
2023/06/08 00:49:45;;;;;;;2.60;1.75;;;20.20;99.90;;;;;;5052804;28;20028;-42
2023/06/08 00:52:10;;;;;;;2.22;1.75;;;20.20;99.90;;;;;;5052642;28;20036;-44
2023/06/08 00:54:39;;;;;;;5.90;1.95;;;20.10;99.90;;;;;;5052713;28;20392;-44
2023/06/08 00:57:06;;;;;;;2.63;1.63;;;20.20;99.90;;;;;;5052739;28;20056;-41
2023/06/08 00:59:32;;;;;;;2.75;2.17;;;20.10;99.90;;;;;;5052615;28;20025;-44
2023/06/08 01:01:58;;;;;;;3.17;1.90;;;20.10;99.90;;;;;;5052115;28;20025;-42
2023/06/08 01:04:25;;;;;;;3.75;2.05;;;20.10;99.90;;;;;;5052421;28;20419;-44
2023/06/08 01:07:25;;;;;;;2.28;1.70;;;20.10;99.90;;;;;;5051189;28;20455;-44
2023/06/08 01:10:07;;;;;;;3.22;1.60;;;20.10;99.90;;;;;;5030583;28;20460;-45
2023/06/08 01:12:46;;;;;;;3.20;2.00;;;20.10;99.90;;;;;;5052328;28;20045;-44
2023/06/08 01:15:33;;;;;;;2.38;1.80;;;20.10;99.90;;;;;;5052699;28;20029;-41
2023/06/08 01:18:04;;;;;;;2.80;1.95;;;20.10;99.90;;;;;;5052218;28;20032;-42
2023/06/08 01:21:02;;;;;;;2.72;1.90;;;20.10;99.90;;;;;;5050725;28;20030;-43
2023/06/08 01:24:11;;;;;;;1.98;1.75;;;20.10;99.90;;;;;;5052075;28;20047;-43
2023/06/08 01:26:49;;;;;;;3.30;2.00;;;20.10;99.90;;;;;;5052099;28;20067;-43
2023/06/08 01:29:16;;;;;;;2.45;2.10;;;20.00;99.90;;;;;;5052008;28;20124;-42
2023/06/08 01:31:42;;;;;;;3.75;2.05;;;20.00;99.90;;;;;;5051641;28;20107;-44
2023/06/08 01:34:12;;;;;;;2.17;1.85;;;20.00;99.90;;;;;;5051870;28;20025;-41
2023/06/08 01:37:04;;;;;;;2.40;1.90;;;20.00;99.90;;;;;;5051923;28;20025;-43
2023/06/08 01:40:07;;;;;;;2.20;1.88;;;20.00;99.90;;;;;;5023041;28;20458;-42
2023/06/08 01:42:35;;;;;;;2.20;1.90;;;20.00;99.90;;;;;;5051771;28;20036;-42
2023/06/08 01:45:09;;;;;;;2.63;2.00;;;20.00;99.90;;;;;;5051700;28;20368;-42
2023/06/08 01:47:59;;;;;;;2.03;1.80;;;20.00;99.90;;;;;;5051736;28;20017;-42
2023/06/08 01:50:26;;;;;;;3.13;1.95;;;20.00;99.90;;;;;;5051527;28;20033;-43
2023/06/08 01:52:54;;;;;;;2.35;1.70;;;20.00;99.90;;;;;;5051685;28;20331;-42
2023/06/08 01:55:21;;;;;;;3.90;2.50;;;19.90;99.90;;;;;;5051554;28;20021;-42
2023/06/08 01:57:47;;;;;;;3.10;2.00;;;20.00;99.90;;;;;;5051021;28;20021;-42
2023/06/08 02:00:17;;;;;;;4.40;2.20;;;19.90;99.90;;;;;;5051244;28;20045;-43
2023/06/08 02:02:44;;;;;;;2.00;1.80;;;20.00;99.90;;;;;;5051397;28;20424;-43
2023/06/08 02:05:11;;;;;;;2.28;1.92;;;19.90;99.90;;;;;;5051416;28;20040;-44
2023/06/08 02:07:41;;;;;;;2.40;1.95;;;19.90;99.90;;;;;;5051442;28;20415;-41
2023/06/08 02:10:08;;;;;;;4.15;2.08;;;19.90;99.90;;;;;;5051188;28;20025;-44
2023/06/08 02:12:34;;;;;;;6.28;2.10;;;19.90;99.90;;;;;;5051100;28;20407;-44
2023/06/08 02:15:01;;;;;;;2.63;2.10;;;19.90;99.90;;;;;;5051123;28;20025;-42
2023/06/08 02:17:33;;;;;;;2.72;1.90;;;19.90;99.90;;;;;;5051331;28;20043;-44
2023/06/08 02:20:06;;;;;;;2.00;1.80;;;19.90;99.90;;;;;;5051169;28;20024;-43
2023/06/08 02:22:32;;;;;;;2.17;1.90;;;19.90;99.90;;;;;;5051272;28;20033;-44
2023/06/08 02:24:58;;;;;;;2.58;1.80;;;19.90;99.90;;;;;;5051090;28;20523;-44
2023/06/08 02:27:24;;;;;;;3.05;1.92;;;19.90;99.90;;;;;;5050963;28;20033;-44
2023/06/08 02:29:50;;;;;;;5.15;1.90;;;19.80;99.90;;;;;;5051353;28;20550;-43
2023/06/08 02:32:15;;;;;;;2.53;1.95;;;19.80;99.90;;;;;;5050873;28;20024;-44
2023/06/08 02:34:41;;;;;;;4.40;1.83;;;19.80;99.90;;;;;;5051086;28;20108;-43
2023/06/08 02:37:07;;;;;;;2.42;1.83;;;19.80;99.90;;;;;;5050955;28;20036;-43
2023/06/08 02:39:33;;;;;;;2.28;1.90;;;19.80;99.90;;;;;;5051009;28;20498;-42
2023/06/08 02:41:58;;;;;;;2.35;2.10;;;19.80;99.90;;;;;;5050661;28;20040;-43
2023/06/08 02:44:24;;;;;;;2.25;1.88;;;19.80;99.90;;;;;;5050913;28;20017;-43
2023/06/08 02:46:50;;;;;;;1.88;1.60;;;19.80;99.90;;;;;;5051003;28;20487;-42
2023/06/08 02:49:16;;;;;;;1.88;1.67;;;19.80;99.90;;;;;;5051091;28;20027;-42
2023/06/08 02:51:42;;;;;;;2.92;1.60;;;19.80;99.90;;;;;;5050726;28;20025;-43
2023/06/08 02:54:07;;;;;;;2.65;1.63;;;19.80;99.90;;;;;;5050875;28;20025;-41
2023/06/08 02:56:33;;;;;;;3.53;1.90;;;19.80;99.90;;;;;;5050813;28;20025;-42
2023/06/08 02:58:59;;;;;;;3.90;1.90;;;19.80;99.90;;;;;;5050842;28;20060;-41
2023/06/08 03:01:30;;;;;;;2.45;1.88;;;19.80;99.90;;;;;;5050661;28;20095;-43
2023/06/08 03:03:56;;;;;;;4.20;2.13;;;19.80;99.90;;;;;;5050564;28;20032;-42
2023/06/08 03:06:21;;;;;;;2.05;1.73;;;19.80;99.90;;;;;;5050838;28;20394;-42
2023/06/08 03:08:57;;;;;;;2.72;1.67;;;19.70;99.90;;;;;;5050754;28;20033;-42
2023/06/08 03:11:23;;;;;;;2.42;1.70;;;19.70;99.90;;;;;;5054340;28;20644;-43
2023/06/08 03:13:49;;;;;;;5.15;1.95;;;19.70;99.90;;;;;;5054841;28;20068;-42
2023/06/08 03:16:15;;;;;;;2.90;1.95;;;19.70;99.90;;;;;;5054645;28;20475;-41
2023/06/08 03:18:41;;;;;;;4.63;1.90;;;19.70;99.90;;;;;;5054451;28;20463;-42
2023/06/08 03:21:07;;;;;;;3.28;1.95;;;19.70;99.90;;;;;;5054308;28;20042;-42
2023/06/08 03:23:37;;;;;;;2.47;1.73;;;19.70;99.90;;;;;;5054294;28;20468;-41
2023/06/08 03:26:03;;;;;;;4.03;2.10;;;19.70;99.90;;;;;;5054627;28;20396;-42
2023/06/08 03:28:29;;;;;;;2.65;1.80;;;19.70;99.90;;;;;;5054317;28;20025;-42
2023/06/08 03:30:55;;;;;;;2.65;1.90;;;19.70;99.90;;;;;;5054127;28;20029;-43
2023/06/08 03:33:20;;;;;;;3.92;2.00;;;19.70;99.90;;;;;;5054061;28;20115;-43
2023/06/08 03:35:47;;;;;;;3.30;1.88;;;19.70;99.90;;;;;;5054207;28;20068;-42
2023/06/08 03:38:13;;;;;;;6.15;1.60;;;19.70;99.90;;;;;;5054470;28;20033;-42
2023/06/08 03:40:39;;;;;;;2.05;1.73;;;19.70;99.90;;;;;;5053963;28;20028;-43
2023/06/08 03:43:04;;;;;;;2.97;1.90;;;19.60;99.90;;;;;;5054019;28;20064;-42
2023/06/08 03:45:30;;;;;;;2.90;1.73;;;19.70;99.90;;;;;;5054056;28;20492;-42
2023/06/08 03:47:56;;;;;;;2.67;1.92;;;19.60;99.90;;;;;;5053974;28;20105;-42
2023/06/08 03:50:22;;;;;;;3.78;1.90;;;19.60;99.90;;;;;;5053795;28;20025;-43
2023/06/08 03:52:47;;;;;;;3.45;2.13;;;19.60;99.90;;;;;;5053794;28;20049;-42
2023/06/08 03:55:13;;;;;;;3.78;1.67;;;19.60;99.90;;;;;;5053681;28;20029;-42
2023/06/08 03:57:39;;;;;;;2.00;1.65;;;19.70;99.90;;;;;;5053748;28;20028;-43
2023/06/08 04:00:11;;;;;;;2.00;1.60;;;19.70;99.90;;;;;;5053625;28;20095;-41
2023/06/08 04:02:38;;;;;;;4.88;2.00;;;19.70;99.90;;;;;;5053772;28;20021;-41
2023/06/08 04:05:06;;;;;;;4.20;2.00;;;19.70;99.90;;;;;;5053394;28;20035;-42
2023/06/08 04:07:34;;;;;;;2.45;1.63;;;19.70;99.90;;;;;;5053801;28;20407;-42
2023/06/08 04:10:03;;;;;;;8.63;1.98;;;19.70;99.90;;;;;;5053363;28;20028;-43
2023/06/08 04:12:28;;;;;;;2.72;1.75;;;19.70;99.90;;;;;;5053652;28;20475;-43
2023/06/08 04:14:54;;;;;;;2.22;1.92;;;19.70;99.90;;;;;;5053445;28;20028;-43
2023/06/08 04:17:20;;;;;;;4.38;1.75;;;19.60;99.90;;;;;;5053401;28;20434;-42
2023/06/08 04:19:45;;;;;;;2.00;1.50;;;19.60;99.90;;;;;;5053330;28;20029;-42
2023/06/08 04:22:11;;;;;;;2.60;2.00;;;19.60;99.90;;;;;;5052940;28;20021;-42
2023/06/08 04:24:38;;;;;;;3.53;1.90;;;19.70;99.90;;;;;;5053336;28;20021;-42
2023/06/08 04:27:06;;;;;;;4.25;2.10;;;19.60;99.90;;;;;;5053187;28;20048;-42
2023/06/08 04:29:32;;;;;;;11.65;3.08;;;19.70;99.90;;;;;;5053536;28;20447;-41
2023/06/08 04:31:58;;;;;;;16.92;4.10;;;19.70;99.90;;;;;;5053011;28;20111;-42
2023/06/08 04:34:23;;;;;;;15.23;3.78;;;19.70;99.90;;;;;;5052808;28;20369;-42
2023/06/08 04:36:50;;;;;;;8.90;3.75;;;19.70;99.90;;;;;;5053067;28;20472;-42
2023/06/08 04:39:16;;;;;;;11.02;3.30;;;19.70;99.90;;;;;;5052976;28;20032;-43
2023/06/08 04:41:45;;;;;;;6.35;2.88;;;19.70;99.90;;;;;;5052936;28;20029;-43
2023/06/08 04:44:13;;;;;;;8.38;3.17;;;19.70;99.90;;;;;;5051568;28;20479;-43
2023/06/08 04:46:42;;;;;;;6.25;2.90;;;19.80;99.90;;;;;;5052893;28;20025;-42
2023/06/08 04:49:09;;;;;;;6.25;2.85;;;19.70;99.90;;;;;;5052772;28;20036;-42
2023/06/08 04:51:39;;;;;;;4.78;2.88;;;19.70;99.90;;;;;;5052573;28;20031;-42
2023/06/08 04:54:13;;;;;;;8.95;3.22;;;19.70;99.90;;;;;;5052618;28;20024;-43
2023/06/08 04:56:42;;;;;;;6.93;2.92;;;19.70;99.90;;;;;;5052800;28;20488;-42
2023/06/08 04:59:09;;;;;;;5.22;2.75;;;19.70;99.90;;;;;;5052565;28;20071;-42
2023/06/08 05:01:35;;;;;;;10.15;3.00;;;19.70;99.90;;;;;;5052293;28;20025;-42
2023/06/08 05:04:01;;;;;;;5.18;2.78;;;19.70;99.90;;;;;;5073123;23;20060;-40
2023/06/08 05:06:27;;;;;;;7.43;3.33;;;19.70;99.90;;;;;;5052201;28;20032;-39
2023/06/08 05:08:53;;;;;;;5.40;3.17;;;19.70;99.90;;;;;;5052432;28;20037;-41
2023/06/08 05:11:18;;;;;;;7.82;2.70;;;19.70;99.90;;;;;;5052287;28;20032;-41
2023/06/08 05:13:44;;;;;;;7.15;3.00;;;19.70;99.90;;;;;;5052344;28;20025;-41
2023/06/08 05:16:10;;;;;;;9.23;3.40;;;19.70;99.90;;;;;;5052261;28;20036;-40
2023/06/08 05:18:36;;;;;;;5.97;2.90;;;19.70;99.90;;;;;;5052220;28;20063;-41
2023/06/08 05:21:02;;;;;;;5.60;3.15;;;19.70;99.90;;;;;;5052099;28;20029;-41
2023/06/08 05:23:28;;;;;;;5.10;3.00;;;19.70;99.90;;;;;;5052186;28;20485;-40
2023/06/08 05:25:53;;;;;;;5.90;2.60;;;19.70;99.90;;;;;;5052843;28;20021;-41
2023/06/08 05:28:19;;;;;;;3.47;2.67;;;19.70;99.90;;;;;;5052100;28;20442;-41
2023/06/08 05:30:45;;;;;;;4.75;2.88;;;19.70;99.90;;;;;;5051781;28;20021;-40
2023/06/08 05:33:10;;;;;;;6.47;3.08;;;19.70;99.90;;;;;;5051403;28;20315;-41
2023/06/08 05:35:36;;;;;;;5.18;3.15;;;19.70;99.90;;;;;;5052010;28;20036;-41
2023/06/08 05:38:02;;;;;;;3.10;2.70;;;19.70;99.90;;;;;;5052089;28;20434;-41
2023/06/08 05:40:27;;;;;;;6.85;2.97;;;19.70;99.90;;;;;;5051663;28;20083;-41
2023/06/08 05:42:53;;;;;;;7.25;3.13;;;19.70;99.90;;;;;;5051802;28;20024;-41
2023/06/08 05:45:19;;;;;;;5.28;3.25;;;19.70;99.90;;;;;;5051628;28;20021;-41
2023/06/08 05:47:45;;;;;;;6.80;3.08;;;19.70;99.90;;;;;;5052348;28;20029;-41
2023/06/08 05:50:10;;;;;;;6.03;3.00;;;19.70;99.90;;;;;;5051947;28;20532;-40
2023/06/08 05:52:36;;;;;;;4.10;3.17;;;19.70;99.90;;;;;;5051972;28;20025;-41
2023/06/08 05:55:02;;;;;;;6.00;3.08;;;19.70;99.90;;;;;;5051568;28;20412;-40
2023/06/08 05:57:27;;;;;;;7.97;3.33;;;19.70;99.90;;;;;;5051871;28;20402;-43
2023/06/08 05:59:53;;;;;;;8.88;3.38;;;19.70;99.90;;;;;;5051382;28;20090;-41
2023/06/08 06:02:18;;;;;;;6.88;3.42;;;19.70;99.90;;;;;;5051465;28;20036;-41
2023/06/08 06:04:44;;;;;;;4.57;3.30;;;19.70;99.90;;;;;;5051152;28;20037;-41
2023/06/08 06:07:10;;;;;;;5.45;3.30;;;19.70;99.90;;;;;;5051376;28;20395;-40
2023/06/08 06:09:36;;;;;;;6.30;3.42;;;19.70;99.90;;;;;;5052043;28;20021;-40
2023/06/08 06:12:02;;;;;;;3.60;2.55;;;19.70;99.90;;;;;;5051184;28;20017;-41
2023/06/08 06:14:35;;;;;;;6.68;3.00;;;19.70;99.90;;;;;;5051192;28;20021;-40
2023/06/08 06:17:01;;;;;;;7.43;2.88;;;19.70;99.90;;;;;;5049947;28;20405;-41
2023/06/08 06:19:28;;;;;;;4.30;2.80;;;19.70;99.90;;;;;;5051320;28;20021;-41
2023/06/08 06:21:54;;;;;;;5.53;3.13;;;19.70;99.90;;;;;;5051061;28;20025;-41
2023/06/08 06:24:20;;;;;;;9.27;2.70;;;19.70;99.90;;;;;;5051228;28;20024;-41
2023/06/08 06:26:45;;;;;;;4.07;2.85;;;19.70;99.90;;;;;;5051239;28;20021;-40
2023/06/08 06:29:11;;;;;;;4.35;3.10;;;19.70;99.90;;;;;;5051119;28;20376;-40
2023/06/08 06:31:36;;;;;;;3.97;3.05;;;19.70;99.90;;;;;;5051084;28;20623;-43
2023/06/08 06:34:02;;;;;;;8.68;2.95;;;19.70;99.90;;;;;;5051240;28;20158;-41
2023/06/08 06:36:29;;;;;;;5.53;2.88;;;19.70;99.90;;;;;;5051397;28;20021;-41
2023/06/08 06:38:55;;;;;;;4.30;3.10;;;19.80;99.90;;;;;;5051461;28;20442;-42
2023/06/08 06:41:20;;;;;;;3.55;2.78;;;19.80;99.90;;;;;;5050875;28;20021;-40
2023/06/08 06:43:46;;;;;;;6.10;3.05;;;19.80;99.90;;;;;;5052347;28;20116;-41
2023/06/08 06:46:12;;;;;;;5.00;2.90;;;19.80;99.90;;;;;;5055169;28;20057;-42
2023/06/08 06:48:38;;;;;;;6.05;3.15;;;19.80;99.90;;;;;;5055116;28;20361;-40
2023/06/08 06:51:03;;;;;;;3.95;2.70;;;19.80;99.90;;;;;;5054859;28;20035;-41
2023/06/08 06:53:29;;;;;;;4.65;2.60;;;19.80;99.90;;;;;;5055336;28;20025;-40
2023/06/08 06:55:55;;;;;;;5.50;2.92;;;19.80;99.90;;;;;;5055570;28;20426;-40
2023/06/08 06:58:22;;;;;;;5.43;2.88;;;19.80;99.90;;;;;;5054753;28;20035;-41
2023/06/08 07:00:49;;;;;;;3.70;2.80;;;19.80;99.90;;;;;;5054820;28;20021;-41
2023/06/08 07:03:16;;;;;;;4.45;2.78;;;19.90;99.90;;;;;;5054832;28;20027;-41
2023/06/08 07:05:41;;;;;;;4.18;2.90;;;19.90;99.90;;;;;;5054853;28;20434;-41
2023/06/08 07:08:07;;;;;;;4.57;2.83;;;19.90;99.90;;;;;;5055092;28;20025;-41
2023/06/08 07:10:33;;;;;;;5.00;2.40;;;19.90;99.90;;;;;;5054466;28;20060;-42
2023/06/08 07:12:58;;;;;;;5.22;2.70;;;19.90;99.90;;;;;;5054652;28;20028;-40
2023/06/08 07:15:25;;;;;;;4.00;2.80;;;19.90;99.90;;;;;;5055140;28;20040;-41
2023/06/08 07:17:51;;;;;;;4.32;2.35;;;19.90;99.90;;;;;;5054550;28;20021;-41
2023/06/08 07:20:16;;;;;;;5.15;2.90;;;19.90;99.90;;;;;;5054302;28;20029;-40
2023/06/08 07:22:42;;;;;;;4.65;2.75;;;19.90;99.90;;;;;;5054553;28;20078;-41
2023/06/08 07:25:08;;;;;;;3.30;2.40;;;19.90;99.90;;;;;;5054343;28;20108;-42
2023/06/08 07:27:33;;;;;;;3.65;2.78;;;19.90;99.90;;;;;;5054774;28;20048;-42
2023/06/08 07:29:59;;;;;;;4.72;2.95;;;19.90;99.90;;;;;;5054501;28;20040;-41
2023/06/08 07:32:26;;;;;;;2.95;2.38;;;19.90;99.90;;;;;;5054352;28;20025;-41
2023/06/08 07:34:52;;;;;;;3.65;2.72;;;19.90;99.90;;;;;;5054507;28;20031;-41
2023/06/08 07:37:18;;;;;;;4.78;2.80;;;20.00;99.90;;;;;;5054462;28;20462;-40
2023/06/08 07:39:43;;;;;;;3.28;2.58;;;20.00;99.90;;;;;;5054172;28;20029;-41
2023/06/08 07:42:09;;;;;;;4.18;2.40;;;20.00;99.90;;;;;;5054466;28;20021;-41
2023/06/08 07:44:35;;;;;;;3.92;2.55;;;20.00;99.90;;;;;;5054049;28;20431;-42
2023/06/08 07:47:00;;;;;;;4.22;2.72;;;20.00;99.90;;;;;;5054309;28;20028;-42
2023/06/08 07:49:28;;;;;;;3.30;2.83;;;20.00;99.90;;;;;;5053981;28;20040;-40
2023/06/08 07:51:54;;;;;;;4.03;2.65;;;20.00;99.90;;;;;;5053688;28;20102;-41
2023/06/08 07:54:20;;;;;;;3.95;2.60;;;20.00;99.90;;;;;;5053813;28;20475;-41
2023/06/08 07:56:46;;;;;;;4.07;2.80;;;20.00;99.90;;;;;;5053667;28;20070;-41
2023/06/08 07:59:12;;;;;;;3.92;2.67;;;20.00;99.90;;;;;;5053974;28;20033;-40
2023/06/08 08:01:38;;;;;;;4.15;2.58;;;20.00;99.90;;;;;;5053762;28;20029;-40
2023/06/08 08:04:03;;;;;;;4.38;2.67;;;20.00;99.90;;;;;;5053650;28;20064;-40
2023/06/08 08:06:29;;;;;;;3.80;2.40;;;20.00;99.90;;;;;;5053794;28;20442;-41
2023/06/08 08:08:55;;;;;;;3.63;2.88;;;20.00;99.90;;;;;;5053630;28;20029;-41
2023/06/08 08:11:20;;;;;;;4.30;2.50;;;20.00;99.90;;;;;;5053327;28;20481;-41
2023/06/08 08:13:46;;;;;;;3.53;2.40;;;20.00;99.90;;;;;;5053471;28;20064;-41
2023/06/08 08:16:12;;;;;;;3.83;2.42;;;20.00;99.90;;;;;;5053659;28;20484;-41
2023/06/08 08:18:38;;;;;;;4.22;2.90;;;20.00;99.90;;;;;;5053276;28;20029;-41
2023/06/08 08:21:04;;;;;;;3.85;2.45;;;20.00;99.90;;;;;;5053231;28;20036;-41
2023/06/08 08:23:29;;;;;;;2.90;2.60;;;20.10;99.90;;;;;;5053297;28;20017;-41
2023/06/08 08:25:55;;;;;;;3.65;2.70;;;20.10;99.90;;;;;;5053291;28;20082;-41
2023/06/08 08:28:20;;;;;;;3.67;2.47;;;20.10;99.90;;;;;;5053296;28;20033;-41
2023/06/08 08:30:46;;;;;;;4.30;2.58;;;20.10;99.90;;;;;;5053185;28;20067;-41
2023/06/08 08:33:13;;;;;;;2.83;2.38;;;20.10;99.90;;;;;;5053166;28;20033;-41
2023/06/08 08:35:38;;;;;;;3.42;2.47;;;20.10;99.90;;;;;;5053100;28;20444;-40
2023/06/08 08:38:05;;;;;;;2.35;1.90;;;20.10;99.90;;;;;;5052921;28;20116;-41
2023/06/08 08:40:31;;;;;;;3.17;2.50;;;20.10;99.90;;;;;;5053310;28;20028;-41
2023/06/08 08:43:18;;;;;;;2.53;2.30;;;20.10;99.90;;;;;;5052995;28;20494;-40
2023/06/08 08:45:45;;;;;;;2.88;2.22;;;20.10;99.90;;;;;;5052954;28;20406;-41
2023/06/08 08:48:14;;;;;;;2.83;2.30;;;20.10;99.90;;;;;;5052873;28;20032;-41
2023/06/08 08:50:41;;;;;;;3.22;2.33;;;20.10;99.90;;;;;;5052560;28;20024;-41
2023/06/08 08:53:09;;;;;;;3.05;2.60;;;20.10;99.90;;;;;;5052840;28;20044;-40
2023/06/08 08:55:36;;;;;;;2.50;2.30;;;20.10;99.90;;;;;;5052751;28;20473;-41
2023/06/08 08:58:03;;;;;;;4.85;2.05;;;20.10;99.90;;;;;;5052844;28;20017;-41
2023/06/08 09:00:32;;;;;;;3.25;2.45;;;20.10;99.90;;;;;;5051441;28;20025;-40
2023/06/08 09:03:01;;;;;;;3.88;2.47;;;20.10;99.90;;;;;;5052709;28;20095;-41
2023/06/08 09:05:26;;;;;;;3.67;2.40;;;20.10;99.90;;;;;;5052268;28;20619;-41
2023/06/08 09:07:55;;;;;;;3.08;2.60;;;20.10;99.90;;;;;;5051667;28;20123;-41
2023/06/08 09:10:26;;;;;;;2.92;2.40;;;20.10;99.90;;;;;;5052874;28;20074;-41
2023/06/08 09:12:54;;;;;;;2.63;1.98;;;20.10;99.90;;;;;;5052723;28;20104;-43
2023/06/08 09:15:31;;;;;;;4.40;2.40;;;20.10;99.90;;;;;;5052320;28;20033;-42
2023/06/08 09:18:00;;;;;;;2.97;2.40;;;20.10;99.90;;;;;;5052113;28;20029;-41
2023/06/08 09:20:31;;;;;;;3.53;2.45;;;20.10;99.90;;;;;;5052062;28;20013;-40
2023/06/08 09:22:57;;;;;;;3.25;2.55;;;20.10;99.90;;;;;;5052222;28;20021;-41
2023/06/08 09:25:38;;;;;;;3.95;2.45;;;20.10;99.90;;;;;;5052121;28;20472;-41
2023/06/08 09:28:24;;;;;;;2.33;2.10;;;20.10;99.90;;;;;;5052072;28;20035;-40
2023/06/08 09:30:51;;;;;;;3.08;2.40;;;20.10;99.90;;;;;;5051957;28;20379;-41
2023/06/08 09:33:29;;;;;;;2.83;2.28;;;20.10;99.90;;;;;;5052045;28;20032;-42
2023/06/08 09:35:57;;;;;;;3.35;2.40;;;20.10;99.90;;;;;;5052087;28;20079;-40
2023/06/08 09:38:27;;;;;;;2.85;2.15;;;20.10;99.90;;;;;;5051860;28;20031;-41
2023/06/08 09:41:11;;;;;;;2.72;2.30;;;20.10;99.90;;;;;;5051655;28;20028;-43
2023/06/08 09:43:37;;;;;;;;;;;20.20;99.90;;;;;;5052502;28;20031;-41
2023/06/08 09:46:03;;;;;;;3.22;2.20;;;20.20;99.90;;;;;;5051855;28;20349;-40
2023/06/08 09:48:28;;;;;;;2.83;2.47;;;20.20;99.90;;;;;;5051851;28;20046;-40
2023/06/08 09:51:02;;;;;;;3.95;2.10;;;20.20;99.90;;;;;;5051563;28;20037;-41
2023/06/08 09:53:33;;;;;;;3.22;2.60;;;20.20;99.90;;;;;;5051880;28;20086;-41
2023/06/08 09:55:59;;;;;;;4.60;2.88;;;20.20;99.90;;;;;;5052048;28;20021;-43
2023/06/08 09:58:25;;;;;;;2.67;2.40;;;20.20;99.90;;;;;;5051519;28;20028;-41
2023/06/08 10:01:00;;;;;;;3.38;2.97;;;20.20;99.90;;;;;;5051295;28;20044;-41
2023/06/08 10:03:33;;;;;;;3.90;2.42;;;20.20;99.90;;;;;;5051830;28;20033;-43
2023/06/08 10:06:00;;;;;;;3.22;2.60;;;20.30;99.90;;;;;;5051746;28;20539;-41
2023/06/08 10:08:27;;;;;;;4.57;2.92;;;20.30;99.90;;;;;;5051458;28;20492;-41
2023/06/08 10:10:55;;;;;;;4.13;2.70;;;20.30;99.90;;;;;;5051226;28;20029;-41
2023/06/08 10:13:21;;;;;;;3.28;2.40;;;20.30;99.90;;;;;;5051329;28;20050;-41
2023/06/08 10:15:47;;;;;;;8.38;3.00;;;20.30;99.90;;;;;;5052720;28;20409;-44
2023/06/08 10:18:14;;;;;;;2.78;2.40;;;20.30;99.90;;;;;;5050985;28;20025;-40
2023/06/08 10:20:40;;;;;;;2.67;2.25;;;20.30;99.90;;;;;;5051087;28;20013;-40
2023/06/08 10:23:07;;;;;;;3.28;2.63;;;20.30;99.90;;;;;;5051271;28;20021;-41
2023/06/08 10:25:34;;;;;;;2.78;2.45;;;20.30;99.90;;;;;;5051261;28;20043;-42
2023/06/08 10:28:05;;;;;;;3.10;2.78;;;20.20;99.90;;;;;;5051157;28;20025;-41
2023/06/08 10:30:39;;;;;;;3.40;2.83;;;20.30;99.90;;;;;;5050938;28;20087;-41
2023/06/08 10:33:12;;;;;;;5.22;2.63;;;20.30;99.90;;;;;;5051545;28;20025;-40
2023/06/08 10:35:42;;;;;;;2.95;2.45;;;20.30;99.90;;;;;;5051133;28;20065;-41
2023/06/08 10:38:15;;;;;;;3.40;2.70;;;20.30;99.90;;;;;;5051760;28;20466;-42
2023/06/08 10:40:45;;;;;;;4.78;2.88;;;20.30;99.90;;;;;;5050936;28;20467;-44
2023/06/08 10:43:11;;;;;;;2.95;2.40;;;20.30;99.90;;;;;;5051007;28;20067;-42
2023/06/08 10:45:39;;;;;;;2.60;2.40;;;20.30;99.90;;;;;;5050965;28;20025;-42
2023/06/08 10:48:15;;;;;;;2.63;2.40;;;20.30;99.90;;;;;;5052214;28;20402;-42
2023/06/08 10:50:43;;;;;;;5.22;2.65;;;20.30;99.90;;;;;;5050918;28;20068;-43
2023/06/08 10:53:09;;;;;;;3.78;2.75;;;20.30;99.90;;;;;;5051779;28;20491;-41
2023/06/08 10:55:34;;;;;;;3.28;2.60;;;20.40;99.90;;;;;;5050922;28;20051;-41
2023/06/08 10:58:18;;;;;;;8.77;2.63;;;20.30;99.90;;;;;;5050812;28;20054;-41
2023/06/08 11:00:46;;;;;;;3.80;2.88;;;20.40;99.90;;;;;;5050691;28;20029;-43
2023/06/08 11:03:19;;;;;;;2.95;2.60;;;20.40;99.90;;;;;;5050925;28;20021;-41
2023/06/08 11:05:50;;;;;;;3.25;2.60;;;20.40;99.90;;;;;;5051499;28;20040;-41
2023/06/08 11:08:16;;;;;;;3.35;2.50;;;20.30;99.90;;;;;;5050747;28;20077;-43
2023/06/08 11:10:42;;;;;;;4.05;2.85;;;20.40;99.90;;;;;;5051387;28;20100;-41
2023/06/08 11:13:10;;;;;;;3.40;2.58;;;20.40;99.90;;;;;;5051559;28;20021;-41
2023/06/08 11:15:45;;;;;;;5.60;2.60;;;20.40;99.90;;;;;;5050943;28;20025;-41
2023/06/08 11:18:11;;;;;;;3.42;2.70;;;20.40;99.90;;;;;;5050604;28;20028;-41
2023/06/08 11:20:41;;;;;;;3.00;2.70;;;20.40;99.90;;;;;;5050404;28;20096;-41
2023/06/08 11:23:09;;;;;;;3.42;3.00;;;20.40;99.90;;;;;;5050860;28;20025;-40
2023/06/08 11:25:35;;;;;;;3.95;2.45;;;20.40;99.90;;;;;;5050562;28;20049;-41
2023/06/08 11:28:01;;;;;;;2.92;2.55;;;20.40;99.90;;;;;;5050597;28;20025;-41
2023/06/08 11:30:31;;;;;;;3.70;2.53;;;20.40;99.90;;;;;;5050962;28;20025;-41
2023/06/08 11:32:57;;;;;;;2.92;2.58;;;20.40;99.90;;;;;;5054670;28;20040;-41
2023/06/08 11:35:24;;;;;;;3.10;2.80;;;20.40;99.90;;;;;;5054112;28;20029;-41
2023/06/08 11:37:51;;;;;;;4.40;3.05;;;20.40;99.90;;;;;;5054114;28;20025;-43
2023/06/08 11:40:17;;;;;;;2.80;2.47;;;20.40;99.90;;;;;;5054614;28;20028;-41
2023/06/08 11:42:44;;;;;;;3.38;2.90;;;20.40;99.90;;;;;;5054113;28;20021;-41
2023/06/08 11:45:12;;;;;;;3.63;2.80;;;20.40;99.90;;;;;;5054065;28;20152;-42
2023/06/08 11:47:41;;;;;;;3.10;2.72;;;20.40;99.90;;;;;;5054126;28;20033;-42
2023/06/08 11:50:07;;;;;;;3.20;2.85;;;20.40;99.90;;;;;;5054982;28;20021;-41
2023/06/08 11:52:34;;;;;;;5.30;2.83;;;20.40;99.90;;;;;;5054409;28;20392;-41
2023/06/08 11:55:13;;;;;;;3.42;3.13;;;20.40;99.90;;;;;;5053870;28;20029;-42
2023/06/08 11:57:41;;;;;;;5.95;2.90;;;20.40;99.90;;;;;;5053845;28;20078;-42
2023/06/08 12:00:09;;;;;;;3.95;3.22;;;20.40;99.90;;;;;;5054150;28;20017;-40
2023/06/08 12:02:38;;;;;;;4.63;3.03;;;20.50;99.90;;;;;;5053701;28;20025;-43
2023/06/08 12:05:06;;;;;;;4.40;2.97;;;20.50;99.90;;;;;;5053762;28;20383;-43
2023/06/08 12:07:33;;;;;;;3.30;3.00;;;20.50;99.90;;;;;;5053696;28;20028;-42
2023/06/08 12:09:59;;;;;;;4.03;3.20;;;20.50;99.90;;;;;;5054488;28;20035;-40
2023/06/08 12:12:29;;;;;;;4.40;3.20;;;20.50;99.90;;;;;;5053811;28;20075;-42
2023/06/08 12:14:55;;;;;;;6.07;3.30;;;20.50;99.90;;;;;;5053413;28;20108;-41
2023/06/08 12:17:28;;;;;;;3.65;3.10;;;20.50;99.90;;;;;;5053364;28;20033;-42
2023/06/08 12:19:55;;;;;;;3.78;2.90;;;20.50;99.90;;;;;;5053372;28;20531;-42
2023/06/08 12:22:21;;;;;;;5.55;3.58;;;20.50;99.90;;;;;;5053817;28;20017;-41
2023/06/08 12:24:47;;;;;;;4.82;3.42;;;20.50;99.90;;;;;;5053289;28;20032;-42
2023/06/08 12:27:12;;;;;;;5.72;3.22;;;20.50;99.90;;;;;;5053234;28;20029;-41
2023/06/08 12:29:38;;;;;;;4.53;3.35;;;20.50;99.90;;;;;;5053141;28;20021;-41
2023/06/08 12:32:05;;;;;;;5.43;3.28;;;20.50;99.90;;;;;;5053087;28;20044;-41
2023/06/08 12:34:32;;;;;;;3.53;3.20;;;20.50;99.90;;;;;;5053118;28;20045;-41
2023/06/08 12:36:57;;;;;;;6.38;3.55;;;20.50;99.90;;;;;;5053195;28;20055;-41
2023/06/08 12:39:23;;;;;;;4.90;3.70;;;20.40;99.90;;;;;;5053034;28;20056;-41
2023/06/08 12:41:49;;;;;;;5.00;3.47;;;20.40;99.90;;;;;;5052508;28;20476;-42
2023/06/08 12:44:15;;;;;;;4.10;3.25;;;20.40;99.90;;;;;;5052867;28;20063;-41
2023/06/08 12:46:40;;;;;;;4.57;3.58;;;20.40;99.90;;;;;;5053176;28;20032;-42
2023/06/08 12:49:07;;;;;;;3.83;3.40;;;20.40;99.90;;;;;;5052964;28;20503;-40
2023/06/08 12:51:33;;;;;;;4.45;3.40;;;20.40;99.90;;;;;;5052718;28;20044;-40